createdAt,value
2018-04-06T00:02:24.370Z,89.00
2018-04-06T00:04:50.620Z,89.20
2018-04-06T00:07:17.579Z,89.30
2018-04-06T00:09:44.571Z,88.90
2018-04-06T00:12:10.805Z,88.90
2018-04-06T00:14:37.039Z,88.70
2018-04-06T00:17:03.402Z,88.70
2018-04-06T00:19:29.612Z,88.60
2018-04-06T00:21:56.590Z,88.60
2018-04-06T00:24:22.871Z,88.60
2018-04-06T00:26:49.109Z,88.80
2018-04-06T00:29:15.351Z,88.70
2018-04-06T00:31:41.573Z,88.70
2018-04-06T00:34:07.835Z,88.90
2018-04-06T00:36:34.042Z,89.10
2018-04-06T00:39:00.254Z,89.10
2018-04-06T00:41:27.244Z,89.20
2018-04-06T00:43:53.476Z,89.20
2018-04-06T00:46:19.709Z,89.10
2018-04-06T00:48:45.954Z,89.00
2018-04-06T00:51:12.214Z,89.20
2018-04-06T00:53:46.415Z,89.30
2018-04-06T00:56:12.649Z,89.60
2018-04-06T00:58:39.620Z,89.70
2018-04-06T01:01:05.841Z,89.70
2018-04-06T01:03:32.792Z,89.70
2018-04-06T01:05:59.764Z,89.70
2018-04-06T01:08:25.987Z,89.80
2018-04-06T01:10:52.957Z,90.20
2018-04-06T01:13:19.908Z,90.20
2018-04-06T01:15:46.144Z,90.30
2018-04-06T01:18:13.455Z,90.50
2018-04-06T01:20:39.664Z,90.50
2018-04-06T01:23:05.932Z,90.60
2018-04-06T01:25:32.166Z,90.80
2018-04-06T01:27:58.389Z,90.90
2018-04-06T01:30:24.625Z,91.00
2018-04-06T01:32:50.860Z,91.10
2018-04-06T01:35:17.823Z,91.40
2018-04-06T01:37:44.784Z,91.40
2018-04-06T01:40:11.004Z,91.40
2018-04-06T01:42:38.071Z,91.50
2018-04-06T01:45:05.070Z,91.60
2018-04-06T01:47:31.827Z,91.60
2018-04-06T01:49:58.031Z,91.70
2018-04-06T01:52:25.007Z,91.80
2018-04-06T01:54:51.233Z,91.80
2018-04-06T01:57:18.219Z,91.90
2018-04-06T01:59:44.440Z,91.90
2018-04-06T02:02:10.659Z,92.00
2018-04-06T02:04:37.651Z,92.10
2018-04-06T02:07:03.891Z,92.10
2018-04-06T02:09:30.135Z,92.10
2018-04-06T02:11:56.355Z,92.00
2018-04-06T02:14:22.614Z,92.00
2018-04-06T02:16:48.819Z,92.00
2018-04-06T02:19:16.026Z,92.10
2018-04-06T02:21:42.265Z,92.10
2018-04-06T02:24:08.481Z,92.10
2018-04-06T02:26:34.707Z,92.30
2018-04-06T02:29:01.679Z,92.50
2018-04-06T02:31:27.904Z,92.50
2018-04-06T02:33:54.168Z,92.70
2018-04-06T02:36:20.397Z,92.70
2018-04-06T02:38:46.616Z,92.90
2018-04-06T02:41:13.610Z,93.20
2018-04-06T02:43:39.877Z,93.10
2018-04-06T02:46:06.059Z,93.20
2018-04-06T02:48:33.004Z,93.30
2018-04-06T02:50:59.976Z,93.00
2018-04-06T02:53:26.932Z,93.10
2018-04-06T02:55:53.885Z,93.10
2018-04-06T02:58:20.851Z,93.00
2018-04-06T03:00:47.813Z,93.10
2018-04-06T03:03:14.045Z,93.10
2018-04-06T03:05:40.995Z,93.10
2018-04-06T03:08:07.959Z,93.20
2018-04-06T03:10:34.919Z,93.20
2018-04-06T03:13:01.900Z,93.30
2018-04-06T03:15:28.119Z,93.20
2018-04-06T03:17:55.080Z,93.30
2018-04-06T03:20:22.276Z,93.20
2018-04-06T03:22:48.498Z,93.20
2018-04-06T03:25:14.762Z,93.20
2018-04-06T03:27:41.000Z,93.40
2018-04-06T03:30:07.218Z,93.40
2018-04-06T03:32:33.454Z,93.60
2018-04-06T03:34:59.674Z,93.70
2018-04-06T03:37:26.640Z,93.90
2018-04-06T03:39:53.596Z,94.00
2018-04-06T03:42:20.542Z,94.00
2018-04-06T03:44:47.490Z,94.30
2018-04-06T03:47:13.755Z,94.10
2018-04-06T03:49:39.969Z,94.10
2018-04-06T03:52:06.200Z,94.20
2018-04-06T03:54:32.417Z,94.10
2018-04-06T03:56:58.654Z,94.30
2018-04-06T03:59:24.905Z,94.40
2018-04-06T04:01:51.141Z,94.40
2018-04-06T04:04:17.371Z,94.50
2018-04-06T04:06:43.584Z,98.10
2018-04-06T04:09:09.794Z,98.30
2018-04-06T04:11:35.999Z,98.60
2018-04-06T04:14:02.980Z,95.10
2018-04-06T04:16:29.207Z,95.00
2018-04-06T04:18:55.447Z,92.80
2018-04-06T04:21:21.988Z,91.10
2018-04-06T04:23:48.251Z,91.90
2018-04-06T04:26:14.481Z,90.60
2018-04-06T04:28:40.724Z,89.40
2018-04-06T04:31:06.925Z,85.60
2018-04-06T04:33:33.147Z,84.00
2018-04-06T04:35:59.382Z,84.10
2018-04-06T04:38:26.343Z,86.30
2018-04-06T04:40:53.291Z,87.40
2018-04-06T04:43:20.256Z,88.30
2018-04-06T04:45:47.216Z,89.20
2018-04-06T04:48:14.182Z,90.00
2018-04-06T04:50:40.410Z,90.00
2018-04-06T04:53:07.379Z,90.80
2018-04-06T04:55:33.587Z,90.80
2018-04-06T04:57:59.851Z,91.20
2018-04-06T05:00:26.779Z,92.00
2018-04-06T05:02:53.029Z,92.00
2018-04-06T05:05:19.995Z,93.50
2018-04-06T05:07:46.958Z,96.30
2018-04-06T05:10:13.933Z,95.10
2018-04-06T05:12:40.174Z,95.10
2018-04-06T05:15:06.393Z,93.60
2018-04-06T05:17:33.376Z,90.30
2018-04-06T05:20:00.322Z,89.50
2018-04-06T05:22:26.702Z,89.50
2018-04-06T05:24:52.937Z,88.00
2018-04-06T05:27:19.154Z,86.90
2018-04-06T05:29:45.406Z,86.50
2018-04-06T05:32:11.619Z,86.10
2018-04-06T05:34:38.602Z,85.20
2018-04-06T05:37:04.804Z,85.10
2018-04-06T05:39:31.768Z,87.90
2018-04-06T05:41:58.723Z,88.60
2018-04-06T05:44:25.683Z,89.50
2018-04-06T05:46:52.635Z,90.60
2018-04-06T05:49:19.605Z,91.80
2018-04-06T05:51:46.564Z,92.10
2018-04-06T05:54:13.524Z,92.50
2018-04-06T05:56:39.788Z,92.50
2018-04-06T05:59:06.031Z,92.00
2018-04-06T06:01:32.231Z,92.10
2018-04-06T06:03:59.195Z,92.80
2018-04-06T06:06:26.146Z,93.00
2018-04-06T06:08:53.151Z,93.00
2018-04-06T06:11:19.352Z,93.00
2018-04-06T06:13:46.324Z,93.40
2018-04-06T06:16:12.553Z,93.40
2018-04-06T06:18:39.527Z,92.10
2018-04-06T06:21:05.746Z,92.20
2018-04-06T06:23:32.796Z,91.90
2018-04-06T06:25:59.780Z,91.70
2018-04-06T06:28:26.021Z,91.70
2018-04-06T06:30:52.231Z,91.60
2018-04-06T06:33:19.211Z,91.90
2018-04-06T06:35:45.447Z,91.90
2018-04-06T06:38:12.397Z,92.10
2018-04-06T06:40:39.371Z,92.10
2018-04-06T06:43:05.652Z,92.00
2018-04-06T06:45:31.821Z,92.00
2018-04-06T06:47:58.031Z,92.00
2018-04-06T06:50:24.271Z,91.90
2018-04-06T06:52:50.480Z,91.90
2018-04-06T06:55:16.734Z,92.00
2018-04-06T06:57:42.973Z,91.80
2018-04-06T07:00:09.205Z,91.60
2018-04-06T07:02:36.270Z,91.50
2018-04-06T07:05:02.536Z,91.30
2018-04-06T07:07:28.732Z,91.00
2018-04-06T07:09:54.967Z,91.20
2018-04-06T07:12:21.930Z,91.10
2018-04-06T07:14:48.220Z,91.10
2018-04-06T07:17:14.478Z,91.00
2018-04-06T07:19:40.680Z,91.00
2018-04-06T07:22:06.969Z,91.40
2018-04-06T07:24:34.019Z,91.00
2018-04-06T07:27:00.267Z,91.00
2018-04-06T07:29:26.503Z,90.90
2018-04-06T07:31:52.705Z,90.70
2018-04-06T07:34:18.931Z,90.50
2018-04-06T07:36:45.160Z,90.40
2018-04-06T07:39:11.372Z,90.30
2018-04-06T07:41:38.354Z,90.30
2018-04-06T07:44:04.581Z,90.30
2018-04-06T07:46:31.552Z,90.10
2018-04-06T07:48:57.776Z,90.20
2018-04-06T07:51:24.755Z,89.90
2018-04-06T07:53:50.952Z,89.90
2018-04-06T07:56:17.179Z,89.30
2018-04-06T07:58:44.168Z,89.20
2018-04-06T08:01:11.149Z,88.70
2018-04-06T08:03:37.371Z,88.60
2018-04-06T08:06:04.368Z,88.40
2018-04-06T08:08:30.569Z,88.40
2018-04-06T08:10:57.589Z,88.70
2018-04-06T08:13:23.813Z,88.00
2018-04-06T08:15:50.047Z,87.70
2018-04-06T08:18:16.243Z,87.10
2018-04-06T08:20:43.215Z,86.00
2018-04-06T08:23:09.481Z,85.90
2018-04-06T08:25:35.731Z,85.70
2018-04-06T08:28:01.967Z,85.70
2018-04-06T08:30:28.223Z,85.70
2018-04-06T08:32:54.437Z,85.10
2018-04-06T08:35:20.677Z,85.00
2018-04-06T08:37:46.925Z,84.80
2018-04-06T08:40:13.158Z,84.30
2018-04-06T08:42:39.374Z,83.80
2018-04-06T08:45:06.360Z,83.00
2018-04-06T08:47:32.584Z,82.90
2018-04-06T08:49:58.814Z,82.70
2018-04-06T08:52:25.060Z,81.80
2018-04-06T08:54:51.325Z,80.80
2018-04-06T08:57:17.571Z,80.80
2018-04-06T08:59:43.801Z,80.30
2018-04-06T09:02:10.027Z,79.60
2018-04-06T09:04:36.245Z,78.40
2018-04-06T09:07:03.221Z,78.40
2018-04-06T09:09:29.418Z,78.30
2018-04-06T09:11:55.658Z,77.70
2018-04-06T09:14:21.879Z,75.70
2018-04-06T09:16:48.138Z,76.10
2018-04-06T09:19:14.393Z,76.60
2018-04-06T09:21:40.643Z,75.60
2018-04-06T09:24:07.626Z,74.60
2018-04-06T09:26:33.891Z,74.50
2018-04-06T09:29:00.098Z,74.30
2018-04-06T09:31:26.329Z,74.50
2018-04-06T09:33:53.268Z,74.70
2018-04-06T09:36:20.297Z,73.80
2018-04-06T09:38:46.539Z,73.80
2018-04-06T09:41:12.769Z,73.60
2018-04-06T09:43:38.998Z,73.50
2018-04-06T09:46:05.232Z,73.10
2018-04-06T09:48:31.486Z,72.80
2018-04-06T09:50:58.454Z,70.50
2018-04-06T09:53:24.692Z,70.90
2018-04-06T09:55:50.936Z,70.40
2018-04-06T09:58:17.158Z,70.20
2018-04-06T10:00:43.404Z,69.10
2018-04-06T10:03:09.666Z,68.60
2018-04-06T10:05:35.906Z,68.40
2018-04-06T10:08:02.180Z,68.70
2018-04-06T10:10:29.150Z,66.40
2018-04-06T10:12:56.143Z,64.70
2018-04-06T10:15:22.399Z,64.70
2018-04-06T10:17:48.672Z,64.30
2018-04-06T10:20:14.893Z,64.20
2018-04-06T10:22:41.139Z,65.00
2018-04-06T10:25:07.380Z,63.30
2018-04-06T10:27:33.622Z,60.70
2018-04-06T10:29:59.847Z,60.30
2018-04-06T10:32:26.071Z,59.30
2018-04-06T10:34:52.273Z,58.00
2018-04-06T10:37:18.550Z,57.50
2018-04-06T10:39:44.773Z,56.50
2018-04-06T10:42:11.040Z,55.80
2018-04-06T10:44:37.282Z,54.90
2018-04-06T10:47:04.289Z,53.40
2018-04-06T10:49:31.277Z,53.80
2018-04-06T10:51:57.507Z,53.70
2018-04-06T10:54:23.735Z,53.90
2018-04-06T10:56:50.700Z,52.20
2018-04-06T10:59:16.925Z,52.20
2018-04-06T11:01:43.921Z,51.20
2018-04-06T11:04:10.125Z,51.20
2018-04-06T11:06:37.088Z,50.30
2018-04-06T11:09:05.075Z,51.00
2018-04-06T11:11:31.299Z,51.00
2018-04-06T11:13:58.263Z,49.30
2018-04-06T11:16:25.224Z,49.70
2018-04-06T11:18:52.204Z,49.70
2018-04-06T11:21:18.411Z,49.60
2018-04-06T11:23:45.452Z,48.90
2018-04-06T11:26:11.680Z,48.80
2018-04-06T11:28:37.921Z,49.50
2018-04-06T11:31:04.127Z,49.20
2018-04-06T11:43:22.118Z,47.20
2018-04-06T11:45:48.322Z,46.50
2018-04-06T11:48:14.560Z,46.60
2018-04-06T11:50:40.780Z,46.80
2018-04-06T11:53:07.078Z,47.70
2018-04-06T11:55:33.275Z,48.50
2018-04-06T11:57:59.528Z,47.80
2018-04-06T12:00:25.778Z,47.10
2018-04-06T12:02:52.001Z,47.90
2018-04-06T12:05:18.252Z,47.90
2018-04-06T12:07:44.488Z,48.70
2018-04-06T12:10:10.740Z,47.50
2018-04-06T12:12:37.010Z,47.50
2018-04-06T12:15:04.001Z,48.90
2018-04-06T12:17:30.974Z,49.10
2018-04-06T12:19:57.189Z,49.00
2018-04-06T12:22:24.128Z,49.30
2018-04-06T12:24:50.369Z,49.10
2018-04-06T12:27:16.867Z,48.80
2018-04-06T12:29:43.073Z,48.40
2018-04-06T12:32:09.302Z,48.70
2018-04-06T12:34:35.545Z,49.30
2018-04-06T12:37:01.779Z,48.70
2018-04-06T12:39:29.508Z,45.60
2018-04-06T12:41:55.739Z,45.60
2018-04-06T12:44:21.954Z,45.90
2018-04-06T12:46:48.933Z,45.60
2018-04-06T12:49:15.166Z,45.50
2018-04-06T12:51:42.145Z,45.50
2018-04-06T12:54:08.487Z,45.50
2018-04-06T12:56:34.725Z,45.20
2018-04-06T12:59:00.991Z,46.00
2018-04-06T13:01:27.229Z,46.40
2018-04-06T13:03:53.455Z,44.40
2018-04-06T13:06:19.726Z,44.30
2018-04-06T13:08:45.955Z,45.30
2018-04-06T13:11:12.176Z,45.10
2018-04-06T13:13:38.409Z,45.10
2018-04-06T13:16:04.665Z,45.50
2018-04-06T13:18:30.893Z,45.80
2018-04-06T13:20:57.113Z,46.80
2018-04-06T13:23:24.142Z,47.50
2018-04-06T13:25:50.341Z,47.50
2018-04-06T13:28:16.625Z,47.70
2018-04-06T13:30:42.868Z,47.70
2018-04-06T13:33:09.098Z,47.90
2018-04-06T13:35:35.353Z,47.70
2018-04-06T13:38:01.587Z,47.00
2018-04-06T13:40:27.817Z,46.40
2018-04-06T13:42:54.043Z,45.70
2018-04-06T13:45:20.346Z,46.20
2018-04-06T13:47:46.595Z,45.80
2018-04-06T13:50:12.831Z,45.60
2018-04-06T13:52:39.079Z,45.40
2018-04-06T13:55:05.369Z,46.10
2018-04-06T13:57:31.628Z,45.10
2018-04-06T13:59:57.901Z,44.80
2018-04-06T14:02:24.126Z,45.40
2018-04-06T14:04:51.138Z,44.30
2018-04-06T14:07:18.101Z,43.00
2018-04-06T14:09:44.371Z,43.00
2018-04-06T14:12:11.332Z,41.60
2018-04-06T14:14:38.300Z,42.30
2018-04-06T14:17:04.613Z,42.30
2018-04-06T14:19:30.880Z,42.30
2018-04-06T14:21:57.838Z,41.90
2018-04-06T14:24:24.826Z,42.20
2018-04-06T14:26:51.107Z,42.20
2018-04-06T14:29:17.372Z,41.70
2018-04-06T14:31:44.349Z,43.00
2018-04-06T14:34:10.616Z,43.00
2018-04-06T14:36:36.860Z,43.50
2018-04-06T14:39:03.160Z,44.00
2018-04-06T14:41:30.118Z,43.90
2018-04-06T14:43:57.109Z,44.40
2018-04-06T14:46:23.352Z,44.40
2018-04-06T14:48:49.586Z,44.40
2018-04-06T14:51:15.802Z,43.80
2018-04-06T14:53:42.767Z,44.40
2018-04-06T14:56:08.999Z,44.40
2018-04-06T14:58:35.977Z,43.50
2018-04-06T15:01:02.254Z,43.40
2018-04-06T15:03:28.478Z,42.00
2018-04-06T15:05:54.722Z,40.90
2018-04-06T15:08:20.964Z,40.50
2018-04-06T15:10:47.200Z,40.60
2018-04-06T15:13:13.464Z,41.10
2018-04-06T15:15:39.699Z,42.00
2018-04-06T15:18:05.946Z,41.90
2018-04-06T15:20:32.214Z,42.20
2018-04-06T15:22:59.182Z,42.50
2018-04-06T15:25:28.435Z,43.40
2018-04-06T15:27:54.684Z,43.40
2018-04-06T15:30:20.931Z,43.30
2018-04-06T15:32:47.171Z,43.90
2018-04-06T15:35:13.452Z,44.90
2018-04-06T15:37:40.430Z,44.10
2018-04-06T15:40:06.677Z,44.10
2018-04-06T15:42:32.931Z,44.20
2018-04-06T15:44:59.202Z,44.60
2018-04-06T15:47:25.443Z,44.80
2018-04-06T15:49:51.699Z,44.20
2018-04-06T15:52:17.931Z,43.90
2018-04-06T15:54:44.142Z,42.70
2018-04-06T15:57:10.401Z,42.90
2018-04-06T15:59:36.670Z,43.10
2018-04-06T16:02:03.651Z,41.20
2018-04-06T16:04:29.887Z,41.20
2018-04-06T16:06:56.130Z,40.90
2018-04-06T16:09:22.353Z,41.30
2018-04-06T16:11:49.404Z,39.70
2018-04-06T16:14:16.390Z,40.60
2018-04-06T16:16:42.641Z,40.60
2018-04-06T16:19:08.845Z,40.10
2018-04-06T16:21:35.096Z,40.20
2018-04-06T16:24:02.099Z,40.70
2018-04-06T16:26:28.386Z,40.70
2018-04-06T16:28:55.356Z,41.10
2018-04-06T16:31:22.339Z,41.70
2018-04-06T16:33:48.570Z,41.60
2018-04-06T16:36:14.818Z,41.90
2018-04-06T16:38:41.035Z,42.10
2018-04-06T16:41:08.037Z,41.30
2018-04-06T16:43:34.252Z,41.90
2018-04-06T16:46:00.531Z,41.40
2018-04-06T16:48:27.066Z,42.00
2018-04-06T16:50:53.366Z,42.90
2018-04-06T16:53:20.333Z,43.40
2018-04-06T16:55:46.604Z,43.40
2018-04-06T16:58:12.847Z,44.00
2018-04-06T17:00:39.065Z,44.60
2018-04-06T17:03:05.333Z,45.40
2018-04-06T17:05:31.571Z,46.00
2018-04-06T17:07:57.842Z,46.70
2018-04-06T17:10:24.823Z,47.60
2018-04-06T17:12:51.803Z,48.40
2018-04-06T17:15:18.035Z,48.40
2018-04-06T17:17:44.279Z,49.00
2018-04-06T17:20:10.512Z,49.40
2018-04-06T17:22:37.011Z,49.80
2018-04-06T17:25:03.389Z,50.30
2018-04-06T17:27:30.355Z,51.70
2018-04-06T17:29:56.576Z,51.70
2018-04-06T17:32:23.571Z,53.20
2018-04-06T17:34:49.821Z,53.10
2018-04-06T17:37:16.067Z,53.70
2018-04-06T17:39:42.315Z,54.40
2018-04-06T17:42:08.571Z,54.90
2018-04-06T17:44:34.829Z,55.20
2018-04-06T17:47:01.838Z,56.30
2018-04-06T17:49:28.067Z,56.30
2018-04-06T17:51:54.326Z,56.70
2018-04-06T17:54:20.566Z,57.20
2018-04-06T17:56:46.794Z,57.70
2018-04-06T17:59:13.051Z,58.10
2018-04-06T18:01:39.321Z,58.50
2018-04-06T18:04:05.544Z,58.70
2018-04-06T18:06:31.824Z,58.90
2018-04-06T18:08:58.808Z,59.80
2018-04-06T18:11:25.064Z,59.70
2018-04-06T18:13:51.317Z,60.20
2018-04-06T18:16:17.591Z,60.80
2018-04-06T18:18:43.883Z,60.90
2018-04-06T18:21:10.124Z,61.00
2018-04-06T18:23:36.437Z,61.40
2018-04-06T18:26:02.701Z,61.60
2018-04-06T18:28:28.981Z,62.20
2018-04-06T18:30:55.251Z,62.60
2018-04-06T18:33:22.298Z,63.40
2018-04-06T18:35:48.561Z,63.30
2018-04-06T18:38:15.635Z,64.10
2018-04-06T18:40:41.908Z,64.10
2018-04-06T18:43:08.957Z,65.10
2018-04-06T18:45:35.256Z,65.10
2018-04-06T18:48:02.297Z,66.50
2018-04-06T18:50:28.544Z,66.40
2018-04-06T18:52:54.799Z,66.60
2018-04-06T18:55:21.787Z,68.90
2018-04-06T18:57:48.044Z,68.80
2018-04-06T19:00:14.286Z,69.50
2018-04-06T19:02:40.594Z,70.00
2018-04-06T19:05:06.860Z,71.10
2018-04-06T19:07:33.244Z,70.60
2018-04-06T19:09:59.541Z,71.00
2018-04-06T19:12:25.806Z,71.00
2018-04-06T19:14:52.036Z,71.10
2018-04-06T19:17:18.278Z,70.80
2018-04-06T19:19:44.580Z,70.90
2018-04-06T19:22:11.606Z,70.10
2018-04-06T19:24:38.011Z,70.10
2018-04-06T19:27:04.283Z,69.80
2018-04-06T19:29:30.579Z,69.30
2018-04-06T19:31:56.972Z,69.10
2018-04-06T19:34:23.282Z,69.00
2018-04-06T19:36:49.556Z,68.70
2018-04-06T19:39:15.827Z,68.70
2018-04-06T19:41:42.850Z,68.30
2018-04-06T19:44:09.200Z,68.20
2018-04-06T19:46:35.524Z,68.30
2018-04-06T19:49:01.853Z,68.20
2018-04-06T19:51:28.078Z,68.10
2018-04-06T19:53:54.399Z,68.10
2018-04-06T19:56:21.419Z,68.30
2018-04-06T19:58:47.737Z,68.30
2018-04-06T20:01:14.011Z,68.30
2018-04-06T20:03:40.271Z,68.40
2018-04-06T20:06:06.519Z,68.30
2018-04-06T20:08:33.520Z,68.60
2018-04-06T20:10:59.805Z,68.60
2018-04-06T20:13:26.083Z,68.70
2018-04-06T20:15:52.390Z,68.80
2018-04-06T20:18:18.675Z,69.00
2018-04-06T20:20:44.961Z,69.10
2018-04-06T20:23:11.197Z,69.10
2018-04-06T20:25:37.477Z,69.60
2018-04-06T20:28:04.464Z,70.10
2018-04-06T20:30:30.724Z,70.10
2018-04-06T20:32:57.173Z,70.20
2018-04-06T20:35:23.427Z,70.60
2018-04-06T20:37:49.687Z,71.00
2018-04-06T20:40:15.960Z,71.00
2018-04-06T20:42:42.184Z,71.40
2018-04-06T20:45:09.183Z,71.80
2018-04-06T20:47:35.427Z,71.80
2018-04-06T20:50:01.673Z,71.80
2018-04-06T20:52:27.909Z,72.00
2018-04-06T20:54:54.172Z,72.20
2018-04-06T20:57:20.416Z,72.50
2018-04-06T20:59:46.648Z,72.80
2018-04-06T21:02:12.897Z,73.30
2018-04-06T21:04:39.153Z,73.40
2018-04-06T21:07:05.390Z,73.70
2018-04-06T21:09:31.630Z,73.70
2018-04-06T21:11:57.874Z,73.80
2018-04-06T21:14:24.140Z,74.00
2018-04-06T21:16:50.362Z,74.00
2018-04-06T21:19:17.354Z,74.70
2018-04-06T21:21:43.608Z,74.70
2018-04-06T21:24:09.846Z,74.90
2018-04-06T21:26:36.063Z,75.10
2018-04-06T21:29:02.298Z,75.40
2018-04-06T21:31:29.267Z,75.90
2018-04-06T21:33:55.751Z,75.80
2018-04-06T21:36:22.004Z,76.00
2018-04-06T21:38:48.235Z,76.30
2018-04-06T21:41:14.459Z,76.50
2018-04-06T21:43:40.679Z,76.60
2018-04-06T21:46:06.932Z,76.80
2018-04-06T21:48:33.171Z,76.80
2018-04-06T21:50:59.398Z,76.90
2018-04-06T21:53:25.650Z,77.00
2018-04-06T21:55:51.935Z,77.20
2018-04-06T21:58:18.144Z,77.40
2018-04-06T22:00:44.445Z,77.50
2018-04-06T22:03:11.618Z,77.60
2018-04-06T22:05:37.841Z,77.90
2018-04-06T22:08:04.819Z,77.80
2018-04-06T22:10:31.087Z,77.80
2018-04-06T22:12:57.311Z,78.20
2018-04-06T22:15:23.566Z,78.40
2018-04-06T22:17:49.795Z,78.60
2018-04-06T22:20:16.029Z,78.70
2018-04-06T22:22:42.240Z,78.70
2018-04-06T22:25:09.224Z,78.80
2018-04-06T22:27:35.436Z,78.80
2018-04-06T22:30:02.449Z,79.20
2018-04-06T22:32:28.655Z,79.00
2018-04-06T22:34:54.925Z,79.30
2018-04-06T22:37:21.167Z,79.50
2018-04-06T22:39:47.413Z,79.60
2018-04-06T22:42:13.627Z,79.80
2018-04-06T22:44:39.842Z,79.80
2018-04-06T22:47:06.830Z,80.20
2018-04-06T22:49:33.059Z,80.20
2018-04-06T22:51:59.292Z,80.50
2018-04-06T22:54:25.528Z,80.60
2018-04-06T22:56:52.494Z,81.00
2018-04-06T22:59:18.736Z,81.00
2018-04-06T23:01:44.988Z,81.10
2018-04-06T23:04:11.206Z,81.10
2018-04-06T23:06:38.189Z,81.20
2018-04-06T23:09:04.466Z,81.20
2018-04-06T23:11:30.724Z,81.20
2018-04-06T23:13:56.957Z,81.40
2018-04-06T23:16:23.197Z,81.40
2018-04-06T23:18:49.412Z,81.50
2018-04-06T23:21:15.651Z,81.70
2018-04-06T23:23:41.869Z,81.70
2018-04-06T23:26:08.136Z,81.90
2018-04-06T23:28:34.374Z,82.00
2018-04-06T23:31:00.636Z,82.10
2018-04-06T23:33:26.854Z,82.20
2018-04-06T23:35:53.113Z,82.40
2018-04-06T23:38:19.320Z,83.10
2018-04-06T23:40:45.540Z,82.70
2018-04-06T23:43:11.747Z,82.90
2018-04-06T23:45:37.991Z,82.90
2018-04-06T23:48:04.235Z,83.10
2018-04-06T23:50:31.190Z,83.40
2018-04-06T23:52:57.391Z,83.30
2018-04-06T23:55:23.616Z,83.50
2018-04-06T23:57:49.855Z,83.50
